sensor_id;sensor_type;location;lat;lon;timestamp;temperature;humidity
44509;DHT22;30214;52.246;14.408;2023-03-01T00:01:09;-3.60;99.90
44509;DHT22;30214;52.246;14.408;2023-03-01T00:03:37;-3.60;99.90
44509;DHT22;30214;52.246;14.408;2023-03-01T00:06:06;-3.60;99.90
44509;DHT22;30214;52.246;14.408;2023-03-01T00:08:35;-3.60;99.90
44509;DHT22;30214;52.246;14.408;2023-03-01T00:11:04;-3.70;99.90
44509;DHT22;30214;52.246;14.408;2023-03-01T00:13:34;-3.70;99.90
44509;DHT22;30214;52.246;14.408;2023-03-01T00:16:02;-3.70;99.90
44509;DHT22;30214;52.246;14.408;2023-03-01T00:18:30;-3.80;99.90
44509;DHT22;30214;52.246;14.408;2023-03-01T00:20:57;-3.80;99.90
44509;DHT22;30214;52.246;14.408;2023-03-01T00:23:25;-3.80;99.90
44509;DHT22;30214;52.246;14.408;2023-03-01T00:25:53;-3.80;99.90
44509;DHT22;30214;52.246;14.408;2023-03-01T00:28:21;-3.90;99.90
44509;DHT22;30214;52.246;14.408;2023-03-01T00:30:48;-4.00;99.90
44509;DHT22;30214;52.246;14.408;2023-03-01T00:33:15;-4.00;99.90
44509;DHT22;30214;52.246;14.408;2023-03-01T00:35:42;-4.00;99.90
44509;DHT22;30214;52.246;14.408;2023-03-01T00:38:09;-4.00;99.90
44509;DHT22;30214;52.246;14.408;2023-03-01T00:40:36;-3.90;99.90
44509;DHT22;30214;52.246;14.408;2023-03-01T00:43:05;-4.00;99.90
44509;DHT22;30214;52.246;14.408;2023-03-01T00:45:32;-4.00;99.90
44509;DHT22;30214;52.246;14.408;2023-03-01T00:48:00;-4.00;99.90
44509;DHT22;30214;52.246;14.408;2023-03-01T00:50:27;-4.00;99.90
44509;DHT22;30214;52.246;14.408;2023-03-01T00:52:55;-4.10;99.90
44509;DHT22;30214;52.246;14.408;2023-03-01T00:55:22;-4.00;99.90
44509;DHT22;30214;52.246;14.408;2023-03-01T00:57:50;-4.00;99.90
44509;DHT22;30214;52.246;14.408;2023-03-01T01:00:19;-4.10;99.90
44509;DHT22;30214;52.246;14.408;2023-03-01T01:02:48;-4.10;99.90
44509;DHT22;30214;52.246;14.408;2023-03-01T01:05:15;-4.20;99.90
44509;DHT22;30214;52.246;14.408;2023-03-01T01:07:46;-4.20;99.90
44509;DHT22;30214;52.246;14.408;2023-03-01T01:10:13;-4.20;99.90
44509;DHT22;30214;52.246;14.408;2023-03-01T01:12:44;-4.20;99.90
44509;DHT22;30214;52.246;14.408;2023-03-01T01:15:12;-4.20;99.90
44509;DHT22;30214;52.246;14.408;2023-03-01T01:17:43;-4.20;99.90
44509;DHT22;30214;52.246;14.408;2023-03-01T01:20:11;-4.20;99.90
44509;DHT22;30214;52.246;14.408;2023-03-01T01:22:38;-4.20;99.90
44509;DHT22;30214;52.246;14.408;2023-03-01T01:25:06;-4.20;99.90
44509;DHT22;30214;52.246;14.408;2023-03-01T01:27:34;-4.20;99.90
44509;DHT22;30214;52.246;14.408;2023-03-01T01:30:01;-4.30;99.90
44509;DHT22;30214;52.246;14.408;2023-03-01T01:32:28;-4.30;99.90
44509;DHT22;30214;52.246;14.408;2023-03-01T01:34:57;-4.20;99.90
44509;DHT22;30214;52.246;14.408;2023-03-01T01:37:24;-4.20;99.90
44509;DHT22;30214;52.246;14.408;2023-03-01T01:39:57;-4.30;99.90
44509;DHT22;30214;52.246;14.408;2023-03-01T01:42:25;-4.40;99.90
44509;DHT22;30214;52.246;14.408;2023-03-01T01:45:27;-4.40;99.90
44509;DHT22;30214;52.246;14.408;2023-03-01T01:48:00;-4.40;99.90
44509;DHT22;30214;52.246;14.408;2023-03-01T01:50:31;-4.40;99.90
44509;DHT22;30214;52.246;14.408;2023-03-01T01:53:05;-4.50;99.90
44509;DHT22;30214;52.246;14.408;2023-03-01T01:55:36;-4.50;99.90
44509;DHT22;30214;52.246;14.408;2023-03-01T01:58:05;-4.60;99.90
44509;DHT22;30214;52.246;14.408;2023-03-01T02:00:34;-4.70;99.90
44509;DHT22;30214;52.246;14.408;2023-03-01T02:03:04;-4.70;99.90
44509;DHT22;30214;52.246;14.408;2023-03-01T02:05:40;-4.70;99.90
44509;DHT22;30214;52.246;14.408;2023-03-01T02:08:13;-4.60;99.90
44509;DHT22;30214;52.246;14.408;2023-03-01T02:10:41;-4.60;99.90
44509;DHT22;30214;52.246;14.408;2023-03-01T02:13:09;-4.60;99.90
44509;DHT22;30214;52.246;14.408;2023-03-01T02:15:39;-4.60;99.90
44509;DHT22;30214;52.246;14.408;2023-03-01T02:18:11;-4.70;99.90
44509;DHT22;30214;52.246;14.408;2023-03-01T02:20:44;-4.70;99.90
44509;DHT22;30214;52.246;14.408;2023-03-01T02:23:17;-4.70;99.90
44509;DHT22;30214;52.246;14.408;2023-03-01T02:25:50;-4.70;99.90
44509;DHT22;30214;52.246;14.408;2023-03-01T02:28:26;-4.80;99.90
44509;DHT22;30214;52.246;14.408;2023-03-01T02:30:55;-4.80;99.90
44509;DHT22;30214;52.246;14.408;2023-03-01T02:33:40;-4.80;99.90
44509;DHT22;30214;52.246;14.408;2023-03-01T02:36:11;-4.80;99.90
44509;DHT22;30214;52.246;14.408;2023-03-01T02:38:42;-4.80;99.90
44509;DHT22;30214;52.246;14.408;2023-03-01T02:41:10;-4.90;99.90
44509;DHT22;30214;52.246;14.408;2023-03-01T02:43:40;-4.90;99.90
44509;DHT22;30214;52.246;14.408;2023-03-01T02:46:13;-4.80;99.90
44509;DHT22;30214;52.246;14.408;2023-03-01T02:48:42;-4.90;99.90
44509;DHT22;30214;52.246;14.408;2023-03-01T02:54:10;-4.90;99.90
44509;DHT22;30214;52.246;14.408;2023-03-01T02:56:43;-4.90;99.90
44509;DHT22;30214;52.246;14.408;2023-03-01T02:59:16;-4.90;99.90
44509;DHT22;30214;52.246;14.408;2023-03-01T03:01:46;-4.90;99.90
44509;DHT22;30214;52.246;14.408;2023-03-01T03:04:16;-4.90;99.90
44509;DHT22;30214;52.246;14.408;2023-03-01T03:06:47;-4.90;99.90
44509;DHT22;30214;52.246;14.408;2023-03-01T03:09:16;-5.00;99.90
44509;DHT22;30214;52.246;14.408;2023-03-01T03:11:45;-5.00;99.90
44509;DHT22;30214;52.246;14.408;2023-03-01T03:14:16;-5.00;99.90
44509;DHT22;30214;52.246;14.408;2023-03-01T03:16:49;-5.10;99.90
44509;DHT22;30214;52.246;14.408;2023-03-01T03:19:17;-5.10;99.90
44509;DHT22;30214;52.246;14.408;2023-03-01T03:21:45;-5.10;99.90
44509;DHT22;30214;52.246;14.408;2023-03-01T03:24:12;-5.10;99.90
44509;DHT22;30214;52.246;14.408;2023-03-01T03:26:39;-5.10;99.90
44509;DHT22;30214;52.246;14.408;2023-03-01T03:29:06;-5.10;99.90
44509;DHT22;30214;52.246;14.408;2023-03-01T03:31:34;-5.10;99.90
44509;DHT22;30214;52.246;14.408;2023-03-01T03:34:02;-5.20;99.90
44509;DHT22;30214;52.246;14.408;2023-03-01T03:36:29;-5.20;99.90
44509;DHT22;30214;52.246;14.408;2023-03-01T03:38:56;-5.20;99.90
44509;DHT22;30214;52.246;14.408;2023-03-01T03:41:23;-5.30;99.90
44509;DHT22;30214;52.246;14.408;2023-03-01T03:43:50;-5.30;99.90
44509;DHT22;30214;52.246;14.408;2023-03-01T03:46:17;-5.30;99.90
44509;DHT22;30214;52.246;14.408;2023-03-01T03:48:46;-5.30;99.90
44509;DHT22;30214;52.246;14.408;2023-03-01T03:51:14;-5.30;99.90
44509;DHT22;30214;52.246;14.408;2023-03-01T03:53:42;-5.30;99.90
44509;DHT22;30214;52.246;14.408;2023-03-01T03:56:09;-5.30;99.90
44509;DHT22;30214;52.246;14.408;2023-03-01T03:58:37;-5.30;99.90
44509;DHT22;30214;52.246;14.408;2023-03-01T04:01:04;-5.20;99.90
44509;DHT22;30214;52.246;14.408;2023-03-01T04:03:33;-5.20;99.90
44509;DHT22;30214;52.246;14.408;2023-03-01T04:06:03;-5.20;99.90
44509;DHT22;30214;52.246;14.408;2023-03-01T04:08:31;-5.30;99.90
44509;DHT22;30214;52.246;14.408;2023-03-01T04:11:00;-5.20;99.90
44509;DHT22;30214;52.246;14.408;2023-03-01T04:13:49;-5.30;99.90
44509;DHT22;30214;52.246;14.408;2023-03-01T04:16:16;-5.40;99.90
44509;DHT22;30214;52.246;14.408;2023-03-01T04:18:44;-5.50;99.90
44509;DHT22;30214;52.246;14.408;2023-03-01T04:21:13;-5.50;99.90
44509;DHT22;30214;52.246;14.408;2023-03-01T04:23:40;-5.50;99.90
44509;DHT22;30214;52.246;14.408;2023-03-01T04:26:08;-5.50;99.90
44509;DHT22;30214;52.246;14.408;2023-03-01T04:28:37;-5.30;99.90
44509;DHT22;30214;52.246;14.408;2023-03-01T04:31:07;-5.30;99.90
44509;DHT22;30214;52.246;14.408;2023-03-01T04:33:39;-5.30;99.90
44509;DHT22;30214;52.246;14.408;2023-03-01T04:36:08;-5.30;99.90
44509;DHT22;30214;52.246;14.408;2023-03-01T04:38:38;-5.30;99.90
44509;DHT22;30214;52.246;14.408;2023-03-01T04:41:05;-5.40;99.90
44509;DHT22;30214;52.246;14.408;2023-03-01T04:43:35;-5.30;99.90
44509;DHT22;30214;52.246;14.408;2023-03-01T04:46:03;-5.00;99.90
44509;DHT22;30214;52.246;14.408;2023-03-01T04:48:31;-5.10;99.90
44509;DHT22;30214;52.246;14.408;2023-03-01T04:50:59;-5.20;99.90
44509;DHT22;30214;52.246;14.408;2023-03-01T04:53:27;-5.30;99.90
44509;DHT22;30214;52.246;14.408;2023-03-01T04:55:58;-5.40;99.90
44509;DHT22;30214;52.246;14.408;2023-03-01T04:58:27;-5.50;99.90
44509;DHT22;30214;52.246;14.408;2023-03-01T05:00:55;-5.50;99.90
44509;DHT22;30214;52.246;14.408;2023-03-01T05:03:23;-5.60;99.90
44509;DHT22;30214;52.246;14.408;2023-03-01T05:05:51;-5.60;99.90
44509;DHT22;30214;52.246;14.408;2023-03-01T05:08:19;-5.60;99.90
44509;DHT22;30214;52.246;14.408;2023-03-01T05:10:49;-5.60;99.90
44509;DHT22;30214;52.246;14.408;2023-03-01T05:13:20;-5.60;99.90
44509;DHT22;30214;52.246;14.408;2023-03-01T05:15:49;-5.70;99.90
44509;DHT22;30214;52.246;14.408;2023-03-01T05:18:21;-5.80;99.90
44509;DHT22;30214;52.246;14.408;2023-03-01T05:20:51;-5.80;99.90
44509;DHT22;30214;52.246;14.408;2023-03-01T05:23:18;-5.90;99.90
44509;DHT22;30214;52.246;14.408;2023-03-01T05:25:45;-6.00;99.90
44509;DHT22;30214;52.246;14.408;2023-03-01T05:28:13;-5.90;99.90
44509;DHT22;30214;52.246;14.408;2023-03-01T05:30:41;-5.90;99.90
44509;DHT22;30214;52.246;14.408;2023-03-01T05:33:09;-6.00;99.90
44509;DHT22;30214;52.246;14.408;2023-03-01T05:35:39;-6.00;99.90
44509;DHT22;30214;52.246;14.408;2023-03-01T05:38:08;-6.00;99.90
44509;DHT22;30214;52.246;14.408;2023-03-01T05:40:39;-6.00;99.90
44509;DHT22;30214;52.246;14.408;2023-03-01T05:43:06;-6.00;99.90
44509;DHT22;30214;52.246;14.408;2023-03-01T05:45:36;-6.00;99.90
44509;DHT22;30214;52.246;14.408;2023-03-01T05:48:06;-5.90;99.90
44509;DHT22;30214;52.246;14.408;2023-03-01T05:50:35;-6.00;99.90
44509;DHT22;30214;52.246;14.408;2023-03-01T05:53:06;-5.90;99.90
44509;DHT22;30214;52.246;14.408;2023-03-01T05:55:36;-5.90;99.90
44509;DHT22;30214;52.246;14.408;2023-03-01T05:58:05;-5.90;99.90
44509;DHT22;30214;52.246;14.408;2023-03-01T06:00:33;-5.90;99.90
44509;DHT22;30214;52.246;14.408;2023-03-01T06:03:01;-5.90;99.90
44509;DHT22;30214;52.246;14.408;2023-03-01T06:05:30;-5.90;99.90
44509;DHT22;30214;52.246;14.408;2023-03-01T06:07:59;-5.80;99.90
44509;DHT22;30214;52.246;14.408;2023-03-01T06:10:28;-5.80;99.90
44509;DHT22;30214;52.246;14.408;2023-03-01T06:12:56;-5.80;99.90
44509;DHT22;30214;52.246;14.408;2023-03-01T06:15:24;-5.80;99.90
44509;DHT22;30214;52.246;14.408;2023-03-01T06:17:52;-5.70;99.90
44509;DHT22;30214;52.246;14.408;2023-03-01T06:20:22;-5.70;99.90
44509;DHT22;30214;52.246;14.408;2023-03-01T06:22:52;-5.60;99.90
44509;DHT22;30214;52.246;14.408;2023-03-01T06:25:22;-5.60;99.90
44509;DHT22;30214;52.246;14.408;2023-03-01T06:27:50;-5.60;99.90
44509;DHT22;30214;52.246;14.408;2023-03-01T06:30:18;-5.50;99.90
44509;DHT22;30214;52.246;14.408;2023-03-01T06:32:46;-5.50;99.90
44509;DHT22;30214;52.246;14.408;2023-03-01T06:35:15;-5.50;99.90
44509;DHT22;30214;52.246;14.408;2023-03-01T06:37:44;-5.40;99.90
44509;DHT22;30214;52.246;14.408;2023-03-01T06:40:14;-5.40;99.90
44509;DHT22;30214;52.246;14.408;2023-03-01T06:42:42;-5.30;99.90
44509;DHT22;30214;52.246;14.408;2023-03-01T06:45:11;-5.20;99.90
44509;DHT22;30214;52.246;14.408;2023-03-01T06:47:38;-5.10;99.90
44509;DHT22;30214;52.246;14.408;2023-03-01T06:50:05;-5.10;99.90
44509;DHT22;30214;52.246;14.408;2023-03-01T06:52:34;-5.00;99.90
44509;DHT22;30214;52.246;14.408;2023-03-01T06:55:01;-5.00;99.90
44509;DHT22;30214;52.246;14.408;2023-03-01T06:57:30;-4.90;99.90
44509;DHT22;30214;52.246;14.408;2023-03-01T06:59:57;-4.80;99.90
44509;DHT22;30214;52.246;14.408;2023-03-01T07:02:24;-4.80;99.90
44509;DHT22;30214;52.246;14.408;2023-03-01T07:04:51;-4.70;99.90
44509;DHT22;30214;52.246;14.408;2023-03-01T07:07:18;-4.60;99.90
44509;DHT22;30214;52.246;14.408;2023-03-01T07:09:46;-4.50;99.90
44509;DHT22;30214;52.246;14.408;2023-03-01T07:12:13;-4.40;99.90
44509;DHT22;30214;52.246;14.408;2023-03-01T07:14:43;-4.20;99.90
44509;DHT22;30214;52.246;14.408;2023-03-01T07:17:10;-4.00;99.90
44509;DHT22;30214;52.246;14.408;2023-03-01T07:19:37;-3.80;99.90
44509;DHT22;30214;52.246;14.408;2023-03-01T07:22:04;-3.60;99.90
44509;DHT22;30214;52.246;14.408;2023-03-01T07:24:33;-3.30;99.90
44509;DHT22;30214;52.246;14.408;2023-03-01T07:27:00;-3.10;99.90
44509;DHT22;30214;52.246;14.408;2023-03-01T07:29:27;-3.00;99.90
44509;DHT22;30214;52.246;14.408;2023-03-01T07:31:56;-2.90;99.90
44509;DHT22;30214;52.246;14.408;2023-03-01T07:34:23;-2.90;99.90
44509;DHT22;30214;52.246;14.408;2023-03-01T07:36:50;-3.00;99.90
44509;DHT22;30214;52.246;14.408;2023-03-01T07:39:17;-3.00;99.90
44509;DHT22;30214;52.246;14.408;2023-03-01T07:41:45;-2.80;99.90
44509;DHT22;30214;52.246;14.408;2023-03-01T07:44:12;-2.60;99.90
44509;DHT22;30214;52.246;14.408;2023-03-01T07:46:39;-2.40;99.90
44509;DHT22;30214;52.246;14.408;2023-03-01T07:49:07;-2.20;99.90
44509;DHT22;30214;52.246;14.408;2023-03-01T07:51:34;-1.80;99.90
44509;DHT22;30214;52.246;14.408;2023-03-01T07:54:01;-1.60;99.90
44509;DHT22;30214;52.246;14.408;2023-03-01T07:56:28;-1.40;99.90
44509;DHT22;30214;52.246;14.408;2023-03-01T07:58:55;-1.30;99.90
44509;DHT22;30214;52.246;14.408;2023-03-01T08:01:23;-1.10;99.90
44509;DHT22;30214;52.246;14.408;2023-03-01T08:03:50;-1.00;99.90
44509;DHT22;30214;52.246;14.408;2023-03-01T08:06:18;-0.80;99.90
44509;DHT22;30214;52.246;14.408;2023-03-01T08:08:45;-0.70;99.90
44509;DHT22;30214;52.246;14.408;2023-03-01T08:11:14;-0.60;99.90
44509;DHT22;30214;52.246;14.408;2023-03-01T08:13:41;-0.50;99.90
44509;DHT22;30214;52.246;14.408;2023-03-01T08:16:11;-0.50;99.90
44509;DHT22;30214;52.246;14.408;2023-03-01T08:18:39;-0.60;99.90
44509;DHT22;30214;52.246;14.408;2023-03-01T08:21:08;-0.50;99.90
44509;DHT22;30214;52.246;14.408;2023-03-01T08:23:39;-0.40;99.90
44509;DHT22;30214;52.246;14.408;2023-03-01T08:26:08;-0.30;99.90
44509;DHT22;30214;52.246;14.408;2023-03-01T08:28:36;-0.20;99.90
44509;DHT22;30214;52.246;14.408;2023-03-01T08:31:13;-0.10;99.90
44509;DHT22;30214;52.246;14.408;2023-03-01T08:33:43;-0.10;99.90
44509;DHT22;30214;52.246;14.408;2023-03-01T08:36:16;-0.10;99.90
44509;DHT22;30214;52.246;14.408;2023-03-01T08:38:45;0.00;99.90
44509;DHT22;30214;52.246;14.408;2023-03-01T08:41:12;0.10;99.90
44509;DHT22;30214;52.246;14.408;2023-03-01T08:43:40;0.20;99.90
44509;DHT22;30214;52.246;14.408;2023-03-01T08:46:07;0.30;99.90
44509;DHT22;30214;52.246;14.408;2023-03-01T08:48:34;0.40;99.90
44509;DHT22;30214;52.246;14.408;2023-03-01T08:51:07;0.60;99.90
44509;DHT22;30214;52.246;14.408;2023-03-01T08:53:35;0.80;99.90
44509;DHT22;30214;52.246;14.408;2023-03-01T08:56:04;1.00;99.90
44509;DHT22;30214;52.246;14.408;2023-03-01T08:58:31;1.10;99.90
44509;DHT22;30214;52.246;14.408;2023-03-01T09:00:59;1.20;99.90
44509;DHT22;30214;52.246;14.408;2023-03-01T09:03:26;1.20;99.90
44509;DHT22;30214;52.246;14.408;2023-03-01T09:05:59;1.40;99.90
44509;DHT22;30214;52.246;14.408;2023-03-01T09:08:27;1.50;99.90
44509;DHT22;30214;52.246;14.408;2023-03-01T09:10:54;1.70;99.90
44509;DHT22;30214;52.246;14.408;2023-03-01T09:13:23;1.80;99.90
44509;DHT22;30214;52.246;14.408;2023-03-01T09:15:50;1.90;99.90
44509;DHT22;30214;52.246;14.408;2023-03-01T09:18:18;2.00;99.90
44509;DHT22;30214;52.246;14.408;2023-03-01T09:20:45;2.20;99.90
44509;DHT22;30214;52.246;14.408;2023-03-01T09:23:12;2.30;99.90
44509;DHT22;30214;52.246;14.408;2023-03-01T09:25:42;2.30;99.90
44509;DHT22;30214;52.246;14.408;2023-03-01T09:28:09;2.50;99.90
44509;DHT22;30214;52.246;14.408;2023-03-01T09:30:37;2.60;99.90
44509;DHT22;30214;52.246;14.408;2023-03-01T09:33:04;2.80;99.90
44509;DHT22;30214;52.246;14.408;2023-03-01T09:35:31;2.90;99.90
44509;DHT22;30214;52.246;14.408;2023-03-01T09:37:58;3.00;99.90
44509;DHT22;30214;52.246;14.408;2023-03-01T09:40:26;3.00;99.90
44509;DHT22;30214;52.246;14.408;2023-03-01T09:42:59;3.10;99.90
44509;DHT22;30214;52.246;14.408;2023-03-01T09:45:33;3.10;99.90
44509;DHT22;30214;52.246;14.408;2023-03-01T09:48:05;3.10;99.90
44509;DHT22;30214;52.246;14.408;2023-03-01T09:50:35;3.30;99.90
44509;DHT22;30214;52.246;14.408;2023-03-01T09:53:08;3.40;99.90
44509;DHT22;30214;52.246;14.408;2023-03-01T09:55:39;3.50;99.90
44509;DHT22;30214;52.246;14.408;2023-03-01T09:58:34;3.60;99.90
44509;DHT22;30214;52.246;14.408;2023-03-01T10:01:21;3.70;99.90
44509;DHT22;30214;52.246;14.408;2023-03-01T10:04:09;3.70;98.70
44509;DHT22;30214;52.246;14.408;2023-03-01T10:06:44;3.80;97.50
44509;DHT22;30214;52.246;14.408;2023-03-01T10:09:16;3.90;97.10
44509;DHT22;30214;52.246;14.408;2023-03-01T10:11:48;4.00;98.30
44509;DHT22;30214;52.246;14.408;2023-03-01T10:14:27;4.10;98.10
44509;DHT22;30214;52.246;14.408;2023-03-01T10:16:59;4.20;97.20
44509;DHT22;30214;52.246;14.408;2023-03-01T10:19:33;4.20;95.10
44509;DHT22;30214;52.246;14.408;2023-03-01T10:22:08;4.20;94.30
44509;DHT22;30214;52.246;14.408;2023-03-01T10:24:39;4.30;95.80
44509;DHT22;30214;52.246;14.408;2023-03-01T10:27:09;4.30;95.80
44509;DHT22;30214;52.246;14.408;2023-03-01T10:29:46;4.40;94.60
44509;DHT22;30214;52.246;14.408;2023-03-01T10:32:16;4.50;93.50
44509;DHT22;30214;52.246;14.408;2023-03-01T10:34:45;4.60;93.80
44509;DHT22;30214;52.246;14.408;2023-03-01T10:37:15;4.70;92.80
44509;DHT22;30214;52.246;14.408;2023-03-01T10:39:57;4.70;92.20
44509;DHT22;30214;52.246;14.408;2023-03-01T10:42:28;4.80;93.50
44509;DHT22;30214;52.246;14.408;2023-03-01T10:44:56;4.90;93.80
44509;DHT22;30214;52.246;14.408;2023-03-01T10:47:25;5.00;93.50
44509;DHT22;30214;52.246;14.408;2023-03-01T10:49:58;5.10;80.30
44509;DHT22;30214;52.246;14.408;2023-03-01T10:52:29;5.00;75.30
44509;DHT22;30214;52.246;14.408;2023-03-01T10:55:01;5.00;73.10
44509;DHT22;30214;52.246;14.408;2023-03-01T10:57:36;5.00;71.20
44509;DHT22;30214;52.246;14.408;2023-03-01T11:00:23;5.10;68.40
44509;DHT22;30214;52.246;14.408;2023-03-01T11:03:03;5.20;71.40
44509;DHT22;30214;52.246;14.408;2023-03-01T11:05:54;5.20;65.20
44509;DHT22;30214;52.246;14.408;2023-03-01T11:08:37;5.30;67.10
44509;DHT22;30214;52.246;14.408;2023-03-01T11:11:20;5.30;68.60
44509;DHT22;30214;52.246;14.408;2023-03-01T11:13:55;5.20;68.70
44509;DHT22;30214;52.246;14.408;2023-03-01T11:16:24;5.20;70.60
44509;DHT22;30214;52.246;14.408;2023-03-01T11:18:58;5.30;75.50
44509;DHT22;30214;52.246;14.408;2023-03-01T11:21:30;5.40;72.20
44509;DHT22;30214;52.246;14.408;2023-03-01T11:24:00;5.30;71.40
44509;DHT22;30214;52.246;14.408;2023-03-01T11:26:30;5.30;75.30
44509;DHT22;30214;52.246;14.408;2023-03-01T11:29:11;5.20;73.40
44509;DHT22;30214;52.246;14.408;2023-03-01T11:31:42;5.00;77.70
44509;DHT22;30214;52.246;14.408;2023-03-01T11:34:12;5.10;73.90
44509;DHT22;30214;52.246;14.408;2023-03-01T11:36:48;5.10;76.80
44509;DHT22;30214;52.246;14.408;2023-03-01T11:39:27;5.20;75.30
44509;DHT22;30214;52.246;14.408;2023-03-01T11:42:02;5.00;78.10
44509;DHT22;30214;52.246;14.408;2023-03-01T11:44:35;5.00;77.30
44509;DHT22;30214;52.246;14.408;2023-03-01T11:47:33;5.00;80.10
44509;DHT22;30214;52.246;14.408;2023-03-01T11:50:15;5.20;79.70
44509;DHT22;30214;52.246;14.408;2023-03-01T11:52:58;5.20;77.90
44509;DHT22;30214;52.246;14.408;2023-03-01T11:55:48;5.30;74.90
44509;DHT22;30214;52.246;14.408;2023-03-01T11:58:40;5.40;79.00
44509;DHT22;30214;52.246;14.408;2023-03-01T12:01:29;5.40;76.70
44509;DHT22;30214;52.246;14.408;2023-03-01T12:04:21;5.50;77.40
44509;DHT22;30214;52.246;14.408;2023-03-01T12:07:01;5.60;78.20
44509;DHT22;30214;52.246;14.408;2023-03-01T12:09:48;5.70;77.90
44509;DHT22;30214;52.246;14.408;2023-03-01T12:12:31;5.70;77.70
44509;DHT22;30214;52.246;14.408;2023-03-01T12:15:23;5.90;80.50
44509;DHT22;30214;52.246;14.408;2023-03-01T12:21:08;5.90;77.20
44509;DHT22;30214;52.246;14.408;2023-03-01T12:24:04;5.90;77.10
44509;DHT22;30214;52.246;14.408;2023-03-01T12:26:46;6.00;78.70
44509;DHT22;30214;52.246;14.408;2023-03-01T12:29:25;6.00;75.10
44509;DHT22;30214;52.246;14.408;2023-03-01T12:32:15;5.90;77.10
44509;DHT22;30214;52.246;14.408;2023-03-01T12:35:13;5.80;73.00
44509;DHT22;30214;52.246;14.408;2023-03-01T12:37:58;5.80;73.90
44509;DHT22;30214;52.246;14.408;2023-03-01T12:40:52;5.80;70.20
44509;DHT22;30214;52.246;14.408;2023-03-01T12:43:39;6.00;74.10
44509;DHT22;30214;52.246;14.408;2023-03-01T12:46:25;6.10;71.30
44509;DHT22;30214;52.246;14.408;2023-03-01T12:49:08;6.10;68.00
44509;DHT22;30214;52.246;14.408;2023-03-01T12:51:38;6.20;67.80
44509;DHT22;30214;52.246;14.408;2023-03-01T12:54:14;6.20;63.40
44509;DHT22;30214;52.246;14.408;2023-03-01T12:56:43;6.20;64.70
44509;DHT22;30214;52.246;14.408;2023-03-01T12:59:22;6.20;67.00
44509;DHT22;30214;52.246;14.408;2023-03-01T13:01:56;6.10;67.70
44509;DHT22;30214;52.246;14.408;2023-03-01T13:04:35;6.10;64.80
44509;DHT22;30214;52.246;14.408;2023-03-01T13:07:16;6.20;62.40
44509;DHT22;30214;52.246;14.408;2023-03-01T13:09:55;6.20;59.40
44509;DHT22;30214;52.246;14.408;2023-03-01T13:12:52;6.20;58.10
44509;DHT22;30214;52.246;14.408;2023-03-01T13:15:33;6.20;58.30
44509;DHT22;30214;52.246;14.408;2023-03-01T13:18:03;6.30;56.90
44509;DHT22;30214;52.246;14.408;2023-03-01T13:20:46;6.30;57.90
44509;DHT22;30214;52.246;14.408;2023-03-01T13:23:25;6.30;57.50
44509;DHT22;30214;52.246;14.408;2023-03-01T13:26:06;6.40;56.60
44509;DHT22;30214;52.246;14.408;2023-03-01T13:32:01;6.40;56.70
44509;DHT22;30214;52.246;14.408;2023-03-01T13:34:41;6.40;56.70
44509;DHT22;30214;52.246;14.408;2023-03-01T13:37:10;6.40;57.20
44509;DHT22;30214;52.246;14.408;2023-03-01T13:39:43;6.50;57.70
44509;DHT22;30214;52.246;14.408;2023-03-01T13:42:30;6.40;57.70
44509;DHT22;30214;52.246;14.408;2023-03-01T13:45:01;6.30;54.80
44509;DHT22;30214;52.246;14.408;2023-03-01T13:47:30;6.20;55.70
44509;DHT22;30214;52.246;14.408;2023-03-01T13:50:00;6.20;54.70
44509;DHT22;30214;52.246;14.408;2023-03-01T13:52:37;6.10;57.50
44509;DHT22;30214;52.246;14.408;2023-03-01T13:55:19;6.10;58.10
44509;DHT22;30214;52.246;14.408;2023-03-01T13:57:53;6.20;58.90
44509;DHT22;30214;52.246;14.408;2023-03-01T14:00:35;6.20;57.80
44509;DHT22;30214;52.246;14.408;2023-03-01T14:03:10;6.30;56.00
44509;DHT22;30214;52.246;14.408;2023-03-01T14:05:40;6.40;54.60
44509;DHT22;30214;52.246;14.408;2023-03-01T14:08:21;6.50;54.10
44509;DHT22;30214;52.246;14.408;2023-03-01T14:14:31;6.50;54.50
44509;DHT22;30214;52.246;14.408;2023-03-01T14:17:29;6.40;52.00
44509;DHT22;30214;52.246;14.408;2023-03-01T14:20:14;6.40;50.70
44509;DHT22;30214;52.246;14.408;2023-03-01T14:22:44;6.30;52.40
44509;DHT22;30214;52.246;14.408;2023-03-01T14:25:27;6.30;53.30
44509;DHT22;30214;52.246;14.408;2023-03-01T14:28:02;6.30;53.20
44509;DHT22;30214;52.246;14.408;2023-03-01T14:30:34;6.30;53.00
44509;DHT22;30214;52.246;14.408;2023-03-01T14:33:17;6.40;51.90
44509;DHT22;30214;52.246;14.408;2023-03-01T14:35:55;6.40;52.70
44509;DHT22;30214;52.246;14.408;2023-03-01T14:38:29;6.30;53.90
44509;DHT22;30214;52.246;14.408;2023-03-01T14:40:58;6.30;53.40
44509;DHT22;30214;52.246;14.408;2023-03-01T14:43:29;6.30;53.10
44509;DHT22;30214;52.246;14.408;2023-03-01T14:45:56;6.30;55.40
44509;DHT22;30214;52.246;14.408;2023-03-01T14:48:24;6.20;52.80
44509;DHT22;30214;52.246;14.408;2023-03-01T14:50:55;6.20;51.50
44509;DHT22;30214;52.246;14.408;2023-03-01T14:53:24;6.20;51.20
44509;DHT22;30214;52.246;14.408;2023-03-01T14:55:54;6.20;53.30
44509;DHT22;30214;52.246;14.408;2023-03-01T14:58:24;6.20;50.50
44509;DHT22;30214;52.246;14.408;2023-03-01T15:00:53;6.20;48.90
44509;DHT22;30214;52.246;14.408;2023-03-01T15:03:27;6.20;50.40
44509;DHT22;30214;52.246;14.408;2023-03-01T15:06:01;6.10;50.90
44509;DHT22;30214;52.246;14.408;2023-03-01T15:08:32;6.10;51.40
44509;DHT22;30214;52.246;14.408;2023-03-01T15:11:03;6.10;53.90
44509;DHT22;30214;52.246;14.408;2023-03-01T15:13:34;6.00;53.20
44509;DHT22;30214;52.246;14.408;2023-03-01T15:16:07;6.00;52.80
44509;DHT22;30214;52.246;14.408;2023-03-01T15:18:37;6.00;53.00
44509;DHT22;30214;52.246;14.408;2023-03-01T15:21:14;6.00;52.30
44509;DHT22;30214;52.246;14.408;2023-03-01T15:23:48;6.00;53.70
44509;DHT22;30214;52.246;14.408;2023-03-01T15:26:25;6.00;54.00
44509;DHT22;30214;52.246;14.408;2023-03-01T15:28:56;6.00;54.00
44509;DHT22;30214;52.246;14.408;2023-03-01T15:31:26;5.90;53.90
44509;DHT22;30214;52.246;14.408;2023-03-01T15:34:08;5.80;53.00
44509;DHT22;30214;52.246;14.408;2023-03-01T15:36:44;5.80;53.60
44509;DHT22;30214;52.246;14.408;2023-03-01T15:39:42;5.80;53.80
44509;DHT22;30214;52.246;14.408;2023-03-01T15:42:11;5.80;53.10
44509;DHT22;30214;52.246;14.408;2023-03-01T15:44:42;5.80;54.60
44509;DHT22;30214;52.246;14.408;2023-03-01T15:47:26;5.70;54.60
44509;DHT22;30214;52.246;14.408;2023-03-01T15:49:56;5.60;54.50
44509;DHT22;30214;52.246;14.408;2023-03-01T15:52:28;5.60;53.00
44509;DHT22;30214;52.246;14.408;2023-03-01T15:54:58;5.60;52.80
44509;DHT22;30214;52.246;14.408;2023-03-01T15:57:27;5.60;51.70
44509;DHT22;30214;52.246;14.408;2023-03-01T15:59:55;5.60;51.70
44509;DHT22;30214;52.246;14.408;2023-03-01T16:02:23;5.50;51.00
44509;DHT22;30214;52.246;14.408;2023-03-01T16:04:51;5.40;51.60